createdAt,value
2023-02-25T00:00:17.623Z,9.05
2023-02-25T00:02:47.518Z,8.52
2023-02-25T00:05:15.560Z,8.00
2023-02-25T00:07:44.313Z,14.30
2023-02-25T00:10:14.215Z,13.13
2023-02-25T00:12:42.974Z,5.55
2023-02-25T00:15:11.813Z,6.30
2023-02-25T00:17:39.956Z,3.85
2023-02-25T00:20:13.328Z,4.60
2023-02-25T00:22:41.971Z,4.30
2023-02-25T00:25:11.012Z,4.95
2023-02-25T00:27:38.931Z,8.85
2023-02-25T00:30:07.926Z,9.32
2023-02-25T00:32:35.940Z,8.85
2023-02-25T00:35:04.156Z,13.88
2023-02-25T00:37:33.495Z,12.18
2023-02-25T00:40:01.490Z,13.25
2023-02-25T00:42:29.424Z,10.02
2023-02-25T00:44:57.359Z,9.70
2023-02-25T00:47:25.292Z,10.00
2023-02-25T00:49:53.264Z,7.82
2023-02-25T00:52:42.166Z,6.68
2023-02-25T00:55:33.488Z,7.82
2023-02-25T00:58:21.957Z,6.13
2023-02-25T01:00:52.276Z,9.80
2023-02-25T01:03:20.224Z,10.48
2023-02-25T01:05:49.477Z,7.82
2023-02-25T01:08:19.546Z,8.00
2023-02-25T01:10:48.824Z,7.80
2023-02-25T01:13:17.446Z,10.82
2023-02-25T01:15:45.432Z,8.13
2023-02-25T01:18:13.351Z,6.40
2023-02-25T01:20:41.683Z,8.02
2023-02-25T01:23:09.642Z,8.43
2023-02-25T01:25:41.932Z,7.85
2023-02-25T01:28:09.899Z,7.70
2023-02-25T01:30:38.522Z,6.43
2023-02-25T01:33:06.606Z,6.10
2023-02-25T01:35:37.036Z,6.35
2023-02-25T01:38:05.184Z,7.35
2023-02-25T01:40:33.207Z,8.68
2023-02-25T01:43:02.589Z,6.13
2023-02-25T01:45:33.973Z,4.05
2023-02-25T01:48:08.147Z,4.65
2023-02-25T01:50:42.415Z,3.92
2023-02-25T01:53:10.674Z,3.50
2023-02-25T01:55:41.582Z,4.47
2023-02-25T01:58:12.969Z,4.20
2023-02-25T02:00:41.466Z,5.32
2023-02-25T02:03:15.969Z,5.43
2023-02-25T02:06:02.290Z,4.63
2023-02-25T02:08:31.943Z,3.53
2023-02-25T02:11:00.138Z,3.10
2023-02-25T02:13:29.993Z,6.55
2023-02-25T02:16:12.170Z,3.00
2023-02-25T02:18:42.329Z,4.00
2023-02-25T02:21:29.782Z,4.95
2023-02-25T02:24:44.428Z,3.50
2023-02-25T02:27:15.266Z,4.95
2023-02-25T02:30:11.236Z,4.28
2023-02-25T02:32:46.205Z,3.78
2023-02-25T02:35:20.435Z,4.40
2023-02-25T02:37:58.815Z,2.85
2023-02-25T02:40:41.869Z,3.38
2023-02-25T02:43:28.370Z,2.70
2023-02-25T02:46:00.964Z,4.03
2023-02-25T02:51:07.356Z,3.55
2023-02-25T02:56:09.023Z,3.47
2023-02-25T02:58:42.028Z,3.78
2023-02-25T03:01:13.816Z,3.88
2023-02-25T03:03:48.095Z,5.20
2023-02-25T03:06:21.186Z,3.97
2023-02-25T03:08:54.820Z,4.28
2023-02-25T03:11:23.360Z,4.15
2023-02-25T03:13:52.287Z,4.22
2023-02-25T03:16:26.032Z,4.13
2023-02-25T03:19:00.548Z,5.40
2023-02-25T03:21:35.471Z,6.20
2023-02-25T03:24:06.220Z,4.65
2023-02-25T03:26:36.439Z,4.25
2023-02-25T03:29:05.126Z,4.55
2023-02-25T03:31:38.419Z,3.50
2023-02-25T03:34:12.445Z,3.15
2023-02-25T03:36:44.039Z,3.05
2023-02-25T03:39:16.885Z,2.47
2023-02-25T03:41:49.904Z,3.22
2023-02-25T03:44:22.307Z,5.70
2023-02-25T03:46:50.505Z,3.90
2023-02-25T03:49:24.319Z,4.47
2023-02-25T03:51:55.493Z,3.80
2023-02-25T03:54:23.447Z,4.32
2023-02-25T03:56:52.740Z,3.63
2023-02-25T03:59:23.641Z,3.33
2023-02-25T04:01:53.556Z,3.60
2023-02-25T04:04:23.263Z,4.13
2023-02-25T04:06:51.247Z,3.45
2023-02-25T04:09:19.405Z,2.95
2023-02-25T04:11:48.935Z,2.80
2023-02-25T04:14:18.298Z,2.88
2023-02-25T04:16:46.327Z,2.92
2023-02-25T04:19:14.313Z,3.10
2023-02-25T04:21:43.658Z,4.22
2023-02-25T04:24:11.800Z,3.15
2023-02-25T04:26:39.753Z,4.93
2023-02-25T04:29:07.772Z,3.42
2023-02-25T04:31:35.855Z,3.67
2023-02-25T04:34:04.148Z,5.38
2023-02-25T04:36:34.417Z,3.92
2023-02-25T04:39:06.122Z,4.97
2023-02-25T04:41:36.453Z,3.90
2023-02-25T04:44:05.597Z,4.55
2023-02-25T04:46:34.247Z,4.70
2023-02-25T04:49:02.420Z,3.92
2023-02-25T04:51:30.505Z,5.15
2023-02-25T04:53:58.972Z,4.72
2023-02-25T04:56:28.610Z,5.60
2023-02-25T04:58:57.644Z,6.75
2023-02-25T05:01:25.660Z,6.15
2023-02-25T05:03:56.752Z,5.18
2023-02-25T05:06:25.432Z,5.10
2023-02-25T05:08:53.702Z,5.20
2023-02-25T05:11:22.209Z,6.70
2023-02-25T05:13:51.768Z,5.63
2023-02-25T05:16:20.854Z,6.30
2023-02-25T05:18:49.494Z,5.53
2023-02-25T05:21:18.886Z,5.40
2023-02-25T05:23:48.731Z,5.18
2023-02-25T05:26:18.367Z,6.70
2023-02-25T05:28:46.295Z,6.00
2023-02-25T05:31:15.777Z,5.07
2023-02-25T05:33:43.766Z,5.80
2023-02-25T05:36:14.445Z,7.18
2023-02-25T05:38:42.943Z,4.97
2023-02-25T05:41:12.610Z,6.47
2023-02-25T05:43:41.146Z,7.15
2023-02-25T05:46:12.121Z,7.60
2023-02-25T05:48:45.961Z,9.82
2023-02-25T05:51:17.017Z,6.80
2023-02-25T05:53:45.624Z,6.35
2023-02-25T05:56:15.743Z,8.70
2023-02-25T05:58:43.979Z,10.30
2023-02-25T06:01:14.047Z,6.95
2023-02-25T06:03:44.342Z,7.32
2023-02-25T06:06:14.686Z,7.40
2023-02-25T06:08:44.896Z,7.45
2023-02-25T06:11:14.561Z,7.75
2023-02-25T06:13:42.891Z,7.72
2023-02-25T06:16:11.063Z,9.30
2023-02-25T06:18:39.765Z,10.70
2023-02-25T06:21:11.141Z,12.15
2023-02-25T06:23:41.485Z,9.82
2023-02-25T06:26:12.192Z,13.68
2023-02-25T06:28:40.225Z,12.10
2023-02-25T06:31:09.882Z,10.68
2023-02-25T06:33:38.361Z,9.25
2023-02-25T06:36:09.353Z,11.98
2023-02-25T06:38:37.490Z,10.48
2023-02-25T06:41:07.782Z,9.10
2023-02-25T06:43:36.306Z,10.60
2023-02-25T06:46:08.403Z,13.50
2023-02-25T06:48:36.595Z,11.80
2023-02-25T06:51:09.097Z,9.35
2023-02-25T06:53:38.740Z,9.48
2023-02-25T06:56:08.158Z,10.50
2023-02-25T06:58:36.690Z,11.00
2023-02-25T07:01:07.812Z,12.65
2023-02-25T07:03:36.039Z,10.38
2023-02-25T07:06:04.113Z,9.82
2023-02-25T07:08:32.274Z,8.30
2023-02-25T07:11:15.020Z,11.80
2023-02-25T07:13:44.337Z,11.23
2023-02-25T07:16:13.328Z,13.57
2023-02-25T07:18:41.420Z,13.13
2023-02-25T07:21:09.814Z,10.35
2023-02-25T07:23:37.824Z,12.85
2023-02-25T07:26:07.237Z,10.93
2023-02-25T07:28:37.154Z,10.93
2023-02-25T07:31:11.119Z,9.27
2023-02-25T07:33:39.170Z,10.30
2023-02-25T07:36:07.353Z,12.13
2023-02-25T07:38:35.434Z,10.27
2023-02-25T07:41:06.035Z,12.45
2023-02-25T07:43:34.089Z,9.60
2023-02-25T07:46:04.035Z,11.88
2023-02-25T07:48:32.129Z,10.27
2023-02-25T07:51:06.385Z,8.98
2023-02-25T07:53:34.331Z,10.77
2023-02-25T07:56:02.769Z,8.60
2023-02-25T07:58:30.757Z,10.93
2023-02-25T08:00:59.668Z,10.10
2023-02-25T08:03:29.045Z,10.70
2023-02-25T08:05:57.508Z,9.13
2023-02-25T08:08:25.626Z,11.25
2023-02-25T08:10:53.769Z,9.32
2023-02-25T08:13:21.680Z,9.70
2023-02-25T08:15:49.901Z,8.18
2023-02-25T08:18:17.903Z,9.93
2023-02-25T08:20:48.585Z,9.63
2023-02-25T08:23:16.882Z,9.48
2023-02-25T08:25:44.875Z,9.70
2023-02-25T08:28:12.799Z,10.98
2023-02-25T08:30:40.906Z,9.65
2023-02-25T08:33:08.927Z,8.48
2023-02-25T08:35:37.003Z,7.78
2023-02-25T08:38:06.576Z,11.38
2023-02-25T08:40:34.711Z,8.23
2023-02-25T08:43:02.869Z,9.90
2023-02-25T08:45:30.867Z,8.32
2023-02-25T08:47:58.839Z,12.85
2023-02-25T08:50:27.310Z,11.35
2023-02-25T08:52:55.332Z,9.40
2023-02-25T08:55:25.348Z,10.30
2023-02-25T08:57:53.756Z,8.18
2023-02-25T09:00:23.255Z,11.60
2023-02-25T09:02:51.128Z,8.55
2023-02-25T09:05:20.747Z,8.77
2023-02-25T09:07:48.749Z,10.27
2023-02-25T09:10:17.808Z,9.82
2023-02-25T09:12:48.689Z,12.82
2023-02-25T09:15:16.640Z,10.48
2023-02-25T09:17:44.561Z,12.35
2023-02-25T09:20:12.755Z,9.90
2023-02-25T09:22:47.613Z,12.77
2023-02-25T09:25:15.560Z,10.45
2023-02-25T09:27:43.526Z,33.72
2023-02-25T09:30:16.252Z,51.65
2023-02-25T09:32:46.662Z,28.80
2023-02-25T09:35:14.700Z,23.75
2023-02-25T09:37:42.639Z,13.02
2023-02-25T09:40:15.682Z,13.40
2023-02-25T09:42:50.505Z,12.65
2023-02-25T09:45:24.482Z,11.80
2023-02-25T09:47:57.808Z,12.80
2023-02-25T09:50:30.043Z,13.30
2023-02-25T09:53:07.501Z,11.43
2023-02-25T09:55:38.040Z,14.40
2023-02-25T09:58:15.144Z,9.07
2023-02-25T10:00:49.610Z,8.85
2023-02-25T10:03:25.917Z,8.55
2023-02-25T10:06:20.878Z,9.32
2023-02-25T10:09:15.970Z,9.30
2023-02-25T10:12:13.313Z,8.40
2023-02-25T10:15:01.797Z,8.07
2023-02-25T10:17:43.342Z,10.85
2023-02-25T10:20:43.084Z,7.95
2023-02-25T10:23:24.713Z,8.50
2023-02-25T10:25:58.090Z,7.05
2023-02-25T10:28:26.154Z,11.18
2023-02-25T10:31:00.112Z,13.23
2023-02-25T10:33:36.784Z,9.75
2023-02-25T10:36:10.341Z,11.32
2023-02-25T10:38:41.947Z,12.57
2023-02-25T10:41:10.304Z,11.40
2023-02-25T10:43:38.265Z,7.07
2023-02-25T10:46:11.925Z,11.32
2023-02-25T10:48:43.294Z,10.57
2023-02-25T10:51:13.162Z,7.93
2023-02-25T10:53:42.274Z,8.35
2023-02-25T10:56:11.278Z,6.78
2023-02-25T10:58:41.657Z,6.97
2023-02-25T11:01:15.095Z,8.65
2023-02-25T11:03:53.642Z,6.88
2023-02-25T11:06:26.654Z,6.05
2023-02-25T11:08:58.563Z,5.40
2023-02-25T11:11:31.062Z,7.55
2023-02-25T11:14:06.201Z,7.43
2023-02-25T11:16:36.854Z,8.05
2023-02-25T11:19:16.115Z,10.13
2023-02-25T11:21:45.185Z,7.18
2023-02-25T11:24:16.236Z,10.82
2023-02-25T11:26:46.785Z,14.82
2023-02-25T11:29:20.392Z,15.98
2023-02-25T11:31:52.185Z,9.32
2023-02-25T11:34:25.717Z,11.10
2023-02-25T11:36:53.885Z,7.60
2023-02-25T11:39:30.870Z,8.18
2023-02-25T11:42:02.663Z,22.70
2023-02-25T11:44:33.740Z,26.45
2023-02-25T11:47:08.311Z,24.40
2023-02-25T11:49:54.025Z,15.57
2023-02-25T11:52:32.377Z,9.10
2023-02-25T11:55:12.883Z,8.85
2023-02-25T11:57:53.616Z,10.45
2023-02-25T12:00:28.596Z,12.13
2023-02-25T12:03:25.088Z,8.63
2023-02-25T12:06:09.148Z,12.35
2023-02-25T12:08:50.061Z,8.30
2023-02-25T12:11:58.368Z,10.85
2023-02-25T12:15:02.010Z,5.28
2023-02-25T12:18:08.400Z,13.57
2023-02-25T12:21:12.132Z,8.80
2023-02-25T12:24:16.108Z,10.65
2023-02-25T12:27:07.270Z,8.63
2023-02-25T12:29:53.946Z,9.18
2023-02-25T12:32:37.871Z,9.07
2023-02-25T12:35:41.043Z,8.27
2023-02-25T12:41:25.733Z,7.82
2023-02-25T12:44:00.924Z,7.75
2023-02-25T12:46:42.241Z,9.73
2023-02-25T12:49:43.801Z,9.70
2023-02-25T12:52:26.851Z,10.57
2023-02-25T12:55:45.510Z,5.72
2023-02-25T12:58:36.978Z,5.70
2023-02-25T13:01:22.136Z,9.48
2023-02-25T13:04:09.980Z,7.50
2023-02-25T13:07:19.638Z,20.92
2023-02-25T13:10:12.759Z,5.63
2023-02-25T13:12:57.695Z,5.43
2023-02-25T13:15:37.359Z,41.67
2023-02-25T13:18:26.390Z,5.82
2023-02-25T13:21:53.639Z,7.05
2023-02-25T13:24:35.336Z,6.38
2023-02-25T13:27:28.799Z,5.90
2023-02-25T13:30:22.841Z,5.90
2023-02-25T13:33:07.946Z,5.70
2023-02-25T13:35:46.374Z,5.18
2023-02-25T13:38:25.484Z,4.90
2023-02-25T13:41:09.084Z,2.63
2023-02-25T13:44:01.859Z,4.45
2023-02-25T13:46:50.763Z,5.72
2023-02-25T13:49:50.508Z,4.53
2023-02-25T13:52:29.062Z,4.38
2023-02-25T13:55:25.181Z,7.72
2023-02-25T13:58:15.210Z,5.68
2023-02-25T14:01:17.073Z,3.97
2023-02-25T14:04:39.212Z,3.70
2023-02-25T14:07:23.229Z,2.50
2023-02-25T14:10:01.463Z,4.57
2023-02-25T14:12:44.436Z,4.20
2023-02-25T14:15:29.374Z,4.25
2023-02-25T14:18:13.163Z,5.07
2023-02-25T14:20:53.100Z,2.95
2023-02-25T14:23:35.322Z,2.47
2023-02-25T14:26:31.289Z,2.35
2023-02-25T14:29:16.306Z,3.80
2023-02-25T14:32:02.359Z,7.57
2023-02-25T14:34:49.272Z,2.70
2023-02-25T14:37:30.502Z,4.60
2023-02-25T14:40:25.779Z,3.00
2023-02-25T14:43:09.392Z,4.05
2023-02-25T14:45:40.880Z,4.63
2023-02-25T14:48:20.612Z,2.15
2023-02-25T14:51:00.398Z,4.80
2023-02-25T14:53:54.222Z,2.20
2023-02-25T14:56:48.838Z,3.67
2023-02-25T14:59:41.688Z,5.47
2023-02-25T15:02:36.573Z,3.65
2023-02-25T15:05:28.975Z,3.80
2023-02-25T15:08:35.842Z,4.50
2023-02-25T15:11:21.170Z,7.03
2023-02-25T15:14:31.007Z,8.77
2023-02-25T15:17:28.811Z,4.40
2023-02-25T15:20:27.659Z,3.45
2023-02-25T15:23:07.287Z,3.78
2023-02-25T15:25:44.359Z,3.75
2023-02-25T15:28:35.496Z,2.33
2023-02-25T15:31:30.229Z,6.55
2023-02-25T15:34:33.802Z,2.57
2023-02-25T15:37:21.705Z,6.72
2023-02-25T15:39:51.901Z,3.30
2023-02-25T15:42:45.018Z,10.65
2023-02-25T15:45:34.360Z,3.80
2023-02-25T15:48:33.073Z,3.15
2023-02-25T15:51:06.415Z,7.90
2023-02-25T15:53:44.868Z,2.53
2023-02-25T15:56:47.784Z,2.58
2023-02-25T15:59:47.305Z,2.85
2023-02-25T16:02:46.376Z,3.00
2023-02-25T16:05:27.231Z,4.18
2023-02-25T16:08:24.881Z,0.98
2023-02-25T16:10:56.242Z,3.10
2023-02-25T16:13:28.532Z,2.53
2023-02-25T16:15:58.359Z,3.95
2023-02-25T16:18:32.911Z,2.78
2023-02-25T16:21:07.918Z,2.03
2023-02-25T16:23:42.785Z,3.38
2023-02-25T16:26:22.687Z,6.97
2023-02-25T16:29:03.248Z,4.50
2023-02-25T16:31:39.172Z,6.80
2023-02-25T16:34:23.876Z,3.15
2023-02-25T16:37:02.815Z,2.08
2023-02-25T16:39:33.703Z,1.13
2023-02-25T16:42:05.049Z,2.92
2023-02-25T16:44:38.925Z,4.88
2023-02-25T16:47:27.801Z,12.73
2023-02-25T16:49:57.972Z,3.42
2023-02-25T16:52:31.017Z,3.05
2023-02-25T16:55:05.738Z,5.13
2023-02-25T16:57:36.326Z,13.77
2023-02-25T17:00:17.356Z,3.35
2023-02-25T17:02:47.738Z,5.55
2023-02-25T17:05:27.975Z,5.68
2023-02-25T17:07:59.770Z,3.60
2023-02-25T17:10:33.738Z,3.47
2023-02-25T17:13:06.252Z,3.03
2023-02-25T17:18:09.757Z,3.67
2023-02-25T17:20:38.376Z,3.50
2023-02-25T17:23:11.097Z,6.10
2023-02-25T17:25:43.553Z,2.92
2023-02-25T17:28:21.605Z,4.47
2023-02-25T17:30:50.628Z,3.92
2023-02-25T17:33:23.597Z,2.65
2023-02-25T17:35:56.449Z,4.45
2023-02-25T17:38:26.265Z,3.47
2023-02-25T17:40:56.033Z,8.18
2023-02-25T17:43:25.247Z,5.43
2023-02-25T17:45:56.173Z,4.47
2023-02-25T17:48:26.612Z,3.67
2023-02-25T17:50:58.533Z,3.25
2023-02-25T17:53:39.472Z,3.08
2023-02-25T17:56:25.325Z,7.32
2023-02-25T17:58:55.269Z,6.85
2023-02-25T18:01:26.507Z,4.65
2023-02-25T18:03:54.941Z,8.45
2023-02-25T18:06:38.361Z,6.35
2023-02-25T18:09:07.102Z,3.13
2023-02-25T18:11:38.739Z,8.00
2023-02-25T18:14:25.700Z,4.27
2023-02-25T18:16:55.468Z,3.38
2023-02-25T18:19:32.023Z,2.45
2023-02-25T18:22:00.198Z,0.75
2023-02-25T18:24:32.909Z,3.05
2023-02-25T18:27:07.672Z,2.17
2023-02-25T18:29:35.968Z,2.65
2023-02-25T18:32:05.290Z,0.60
2023-02-25T18:34:33.340Z,2.08
2023-02-25T18:37:01.866Z,2.60
2023-02-25T18:39:30.119Z,2.47
2023-02-25T18:41:58.207Z,1.98
2023-02-25T18:44:30.043Z,3.33
2023-02-25T18:47:16.853Z,2.90
2023-02-25T18:50:06.659Z,2.22
2023-02-25T18:52:58.423Z,2.72
2023-02-25T18:55:32.011Z,1.60
2023-02-25T18:58:01.125Z,1.05
2023-02-25T19:00:30.782Z,4.28
2023-02-25T19:03:00.997Z,2.15
2023-02-25T19:05:29.724Z,2.00
2023-02-25T19:07:58.113Z,5.32
2023-02-25T19:10:30.999Z,2.25
2023-02-25T19:13:07.634Z,2.38
2023-02-25T19:15:37.208Z,4.80
2023-02-25T19:18:05.606Z,2.33
2023-02-25T19:20:33.560Z,7.30
2023-02-25T19:23:01.702Z,5.93
2023-02-25T19:25:32.055Z,5.30
2023-02-25T19:28:00.037Z,3.45
2023-02-25T19:30:33.998Z,3.88
2023-02-25T19:33:05.093Z,4.20
2023-02-25T19:35:43.052Z,6.57
2023-02-25T19:38:15.380Z,4.63
2023-02-25T19:40:44.033Z,3.17
2023-02-25T19:43:12.239Z,2.08
2023-02-25T19:45:42.663Z,5.63
2023-02-25T19:48:13.942Z,4.30
2023-02-25T19:50:46.496Z,5.60
2023-02-25T19:53:14.633Z,3.30
2023-02-25T19:55:44.072Z,2.83
2023-02-25T19:58:12.168Z,4.65
2023-02-25T20:00:45.812Z,7.80
2023-02-25T20:03:16.601Z,4.13
2023-02-25T20:05:45.008Z,5.82
2023-02-25T20:08:15.089Z,3.83
2023-02-25T20:10:45.656Z,8.57
2023-02-25T20:13:17.683Z,3.10
2023-02-25T20:15:45.846Z,6.30
2023-02-25T20:18:17.036Z,6.50
2023-02-25T20:20:45.425Z,5.63
2023-02-25T20:23:15.161Z,4.68
2023-02-25T20:25:45.363Z,4.78
2023-02-25T20:28:14.839Z,3.72
2023-02-25T20:30:43.011Z,5.47
2023-02-25T20:33:16.374Z,5.45
2023-02-25T20:35:51.037Z,6.75
2023-02-25T20:38:27.984Z,8.75
2023-02-25T20:40:58.925Z,6.20
2023-02-25T20:43:29.620Z,8.35
2023-02-25T20:45:57.992Z,7.40
2023-02-25T20:48:30.852Z,8.35
2023-02-25T20:51:03.125Z,8.40
2023-02-25T20:53:34.643Z,8.57
2023-02-25T20:56:02.697Z,16.45
2023-02-25T20:58:33.294Z,8.18
2023-02-25T21:01:01.432Z,8.50
2023-02-25T21:03:32.082Z,7.05
2023-02-25T21:06:01.567Z,5.75
2023-02-25T21:08:29.696Z,7.35
2023-02-25T21:10:58.897Z,7.97
2023-02-25T21:13:26.916Z,7.03
2023-02-25T21:15:59.567Z,4.82
2023-02-25T21:18:27.738Z,15.45
2023-02-25T21:20:59.546Z,8.48
2023-02-25T21:23:29.446Z,4.60
2023-02-25T21:25:57.923Z,8.25
2023-02-25T21:28:25.960Z,10.80
2023-02-25T21:31:00.864Z,10.70
2023-02-25T21:33:29.179Z,10.60
2023-02-25T21:35:57.610Z,4.82
2023-02-25T21:38:25.566Z,9.57
2023-02-25T21:40:55.013Z,7.55
2023-02-25T21:43:24.012Z,6.50
2023-02-25T21:45:55.282Z,3.22
2023-02-25T21:48:24.427Z,4.03
2023-02-25T21:50:52.806Z,5.07
2023-02-25T21:53:21.707Z,4.57
2023-02-25T21:55:49.947Z,4.38
2023-02-25T21:58:19.311Z,9.48
2023-02-25T22:00:47.367Z,5.50
2023-02-25T22:03:15.558Z,8.18
2023-02-25T22:05:46.652Z,11.15
2023-02-25T22:08:16.537Z,6.53
2023-02-25T22:10:44.555Z,4.03
2023-02-25T22:13:12.495Z,6.45
2023-02-25T22:15:43.715Z,6.22
2023-02-25T22:18:11.874Z,5.32
2023-02-25T22:20:39.868Z,5.38
2023-02-25T22:23:07.887Z,4.35
2023-02-25T22:25:35.849Z,7.35
2023-02-25T22:28:05.342Z,3.63
2023-02-25T22:30:33.454Z,2.88
2023-02-25T22:33:02.968Z,5.38
2023-02-25T22:35:31.297Z,4.43
2023-02-25T22:37:59.325Z,5.18
2023-02-25T22:40:27.827Z,2.90
2023-02-25T22:42:55.831Z,2.42
2023-02-25T22:45:24.380Z,2.97
2023-02-25T22:47:52.318Z,2.13
2023-02-25T22:50:21.728Z,3.50
2023-02-25T22:52:49.843Z,3.63
2023-02-25T22:55:18.640Z,2.88
2023-02-25T22:57:46.636Z,3.20
2023-02-25T23:00:16.915Z,3.03
2023-02-25T23:02:45.220Z,3.55
2023-02-25T23:05:13.297Z,4.57
2023-02-25T23:07:43.074Z,3.10
2023-02-25T23:10:12.171Z,3.53
2023-02-25T23:12:40.546Z,3.75
2023-02-25T23:15:10.205Z,9.40
2023-02-25T23:17:38.304Z,4.40
2023-02-25T23:20:09.940Z,6.28
2023-02-25T23:22:37.899Z,5.13
2023-02-25T23:25:09.964Z,3.70
2023-02-25T23:27:37.953Z,4.55
2023-02-25T23:30:06.894Z,8.10
2023-02-25T23:32:34.973Z,5.40
2023-02-25T23:35:02.991Z,9.85
2023-02-25T23:37:32.305Z,4.53
2023-02-25T23:40:00.272Z,5.10
2023-02-25T23:42:29.870Z,10.05
2023-02-25T23:44:57.787Z,4.00
2023-02-25T23:47:25.721Z,9.05
2023-02-25T23:49:53.682Z,7.05
2023-02-25T23:52:21.642Z,5.15
2023-02-25T23:54:49.663Z,7.03
2023-02-25T23:57:17.638Z,5.57
2023-02-25T23:59:47.010Z,4.30
